sensor_id;sensor_type;location;lat;lon;timestamp;temperature;humidity
24468;DHT22;12634;50.852;5.676;2024-03-07T00:01:10;4.70;99.90
24468;DHT22;12634;50.852;5.676;2024-03-07T00:03:37;4.80;99.90
24468;DHT22;12634;50.852;5.676;2024-03-07T00:06:06;4.80;99.90
24468;DHT22;12634;50.852;5.676;2024-03-07T00:08:34;4.90;99.90
24468;DHT22;12634;50.852;5.676;2024-03-07T00:11:02;4.80;99.90
24468;DHT22;12634;50.852;5.676;2024-03-07T00:13:29;4.90;99.90
24468;DHT22;12634;50.852;5.676;2024-03-07T00:15:56;4.90;99.90
24468;DHT22;12634;50.852;5.676;2024-03-07T00:18:24;4.70;99.90
24468;DHT22;12634;50.852;5.676;2024-03-07T00:20:52;4.60;99.90
24468;DHT22;12634;50.852;5.676;2024-03-07T00:23:21;4.60;99.90
24468;DHT22;12634;50.852;5.676;2024-03-07T00:25:49;4.30;99.90
24468;DHT22;12634;50.852;5.676;2024-03-07T00:28:16;4.40;99.90
24468;DHT22;12634;50.852;5.676;2024-03-07T00:30:43;4.40;99.90
24468;DHT22;12634;50.852;5.676;2024-03-07T00:33:11;4.50;99.90
24468;DHT22;12634;50.852;5.676;2024-03-07T00:35:39;4.40;99.90
24468;DHT22;12634;50.852;5.676;2024-03-07T00:38:06;4.30;99.90
24468;DHT22;12634;50.852;5.676;2024-03-07T00:40:35;4.10;99.90
24468;DHT22;12634;50.852;5.676;2024-03-07T00:43:02;4.30;99.90
24468;DHT22;12634;50.852;5.676;2024-03-07T00:45:29;4.40;99.90
24468;DHT22;12634;50.852;5.676;2024-03-07T00:47:58;4.30;99.90
24468;DHT22;12634;50.852;5.676;2024-03-07T00:50:25;4.20;99.90
24468;DHT22;12634;50.852;5.676;2024-03-07T00:52:53;4.20;99.90
24468;DHT22;12634;50.852;5.676;2024-03-07T00:55:20;3.90;99.90
24468;DHT22;12634;50.852;5.676;2024-03-07T00:57:49;3.80;99.90
24468;DHT22;12634;50.852;5.676;2024-03-07T01:00:17;4.30;99.90
24468;DHT22;12634;50.852;5.676;2024-03-07T01:02:47;3.90;99.90
24468;DHT22;12634;50.852;5.676;2024-03-07T01:05:14;3.70;99.90
24468;DHT22;12634;50.852;5.676;2024-03-07T01:07:43;4.10;99.90
24468;DHT22;12634;50.852;5.676;2024-03-07T01:10:12;4.40;99.90
24468;DHT22;12634;50.852;5.676;2024-03-07T01:12:39;4.40;99.90
24468;DHT22;12634;50.852;5.676;2024-03-07T01:15:10;4.50;99.90
24468;DHT22;12634;50.852;5.676;2024-03-07T01:17:38;4.40;99.90
24468;DHT22;12634;50.852;5.676;2024-03-07T01:20:06;4.40;99.90
24468;DHT22;12634;50.852;5.676;2024-03-07T01:22:34;4.40;99.90
24468;DHT22;12634;50.852;5.676;2024-03-07T01:25:02;4.40;99.90
24468;DHT22;12634;50.852;5.676;2024-03-07T01:27:30;4.10;99.90
24468;DHT22;12634;50.852;5.676;2024-03-07T01:29:57;4.30;99.90
24468;DHT22;12634;50.852;5.676;2024-03-07T01:32:25;4.20;99.90
24468;DHT22;12634;50.852;5.676;2024-03-07T01:34:52;4.10;99.90
24468;DHT22;12634;50.852;5.676;2024-03-07T01:37:20;4.10;99.90
24468;DHT22;12634;50.852;5.676;2024-03-07T01:39:47;4.20;99.90
24468;DHT22;12634;50.852;5.676;2024-03-07T01:42:14;3.90;99.90
24468;DHT22;12634;50.852;5.676;2024-03-07T01:44:42;4.00;99.90
24468;DHT22;12634;50.852;5.676;2024-03-07T01:47:10;4.00;99.90
24468;DHT22;12634;50.852;5.676;2024-03-07T01:49:39;3.90;99.90
24468;DHT22;12634;50.852;5.676;2024-03-07T01:52:06;3.90;99.90
24468;DHT22;12634;50.852;5.676;2024-03-07T01:54:35;3.80;99.90
24468;DHT22;12634;50.852;5.676;2024-03-07T01:57:02;3.60;99.90
24468;DHT22;12634;50.852;5.676;2024-03-07T01:59:32;3.60;99.90
24468;DHT22;12634;50.852;5.676;2024-03-07T02:02:00;3.80;99.90
24468;DHT22;12634;50.852;5.676;2024-03-07T02:04:28;3.80;99.90
24468;DHT22;12634;50.852;5.676;2024-03-07T02:06:57;3.70;99.90
24468;DHT22;12634;50.852;5.676;2024-03-07T02:09:24;3.70;99.90
24468;DHT22;12634;50.852;5.676;2024-03-07T02:11:52;3.70;99.90
24468;DHT22;12634;50.852;5.676;2024-03-07T02:14:19;3.70;99.90
24468;DHT22;12634;50.852;5.676;2024-03-07T02:16:46;3.70;99.90
24468;DHT22;12634;50.852;5.676;2024-03-07T02:19:14;3.50;99.90
24468;DHT22;12634;50.852;5.676;2024-03-07T02:21:45;3.60;99.90
24468;DHT22;12634;50.852;5.676;2024-03-07T02:24:12;3.70;99.90
24468;DHT22;12634;50.852;5.676;2024-03-07T02:26:40;3.60;99.90
24468;DHT22;12634;50.852;5.676;2024-03-07T02:29:07;3.60;99.90
24468;DHT22;12634;50.852;5.676;2024-03-07T02:31:34;3.70;99.90
24468;DHT22;12634;50.852;5.676;2024-03-07T02:34:07;3.70;99.90
24468;DHT22;12634;50.852;5.676;2024-03-07T02:36:34;3.60;99.90
24468;DHT22;12634;50.852;5.676;2024-03-07T02:39:03;3.60;99.90
24468;DHT22;12634;50.852;5.676;2024-03-07T02:41:32;3.70;99.90
24468;DHT22;12634;50.852;5.676;2024-03-07T02:44:00;3.40;99.90
24468;DHT22;12634;50.852;5.676;2024-03-07T02:46:29;3.50;99.90
24468;DHT22;12634;50.852;5.676;2024-03-07T02:49:00;3.60;99.90
24468;DHT22;12634;50.852;5.676;2024-03-07T02:51:27;3.50;99.90
24468;DHT22;12634;50.852;5.676;2024-03-07T02:53:54;3.60;99.90
24468;DHT22;12634;50.852;5.676;2024-03-07T02:56:22;3.60;99.90
24468;DHT22;12634;50.852;5.676;2024-03-07T02:58:50;3.70;99.90
24468;DHT22;12634;50.852;5.676;2024-03-07T03:01:18;3.70;99.90
24468;DHT22;12634;50.852;5.676;2024-03-07T03:03:45;3.70;99.90
24468;DHT22;12634;50.852;5.676;2024-03-07T03:06:12;3.60;99.90
24468;DHT22;12634;50.852;5.676;2024-03-07T03:08:39;3.70;99.90
24468;DHT22;12634;50.852;5.676;2024-03-07T03:11:07;3.60;99.90
24468;DHT22;12634;50.852;5.676;2024-03-07T03:13:37;3.70;99.90
24468;DHT22;12634;50.852;5.676;2024-03-07T03:16:05;3.60;99.90
24468;DHT22;12634;50.852;5.676;2024-03-07T03:18:32;3.70;99.90
24468;DHT22;12634;50.852;5.676;2024-03-07T03:21:00;3.50;99.90
24468;DHT22;12634;50.852;5.676;2024-03-07T03:23:28;3.40;99.90
24468;DHT22;12634;50.852;5.676;2024-03-07T03:25:55;3.40;99.90
24468;DHT22;12634;50.852;5.676;2024-03-07T03:28:22;3.30;99.90
24468;DHT22;12634;50.852;5.676;2024-03-07T03:30:52;3.20;99.90
24468;DHT22;12634;50.852;5.676;2024-03-07T03:33:19;3.40;99.90
24468;DHT22;12634;50.852;5.676;2024-03-07T03:35:47;3.50;99.90
24468;DHT22;12634;50.852;5.676;2024-03-07T03:38:14;3.60;99.90
24468;DHT22;12634;50.852;5.676;2024-03-07T03:40:42;3.70;99.90
24468;DHT22;12634;50.852;5.676;2024-03-07T03:43:09;3.60;99.90
24468;DHT22;12634;50.852;5.676;2024-03-07T03:45:36;3.40;99.90
24468;DHT22;12634;50.852;5.676;2024-03-07T03:48:05;3.60;99.90
24468;DHT22;12634;50.852;5.676;2024-03-07T03:50:32;3.80;99.90
24468;DHT22;12634;50.852;5.676;2024-03-07T03:53:01;3.90;99.90
24468;DHT22;12634;50.852;5.676;2024-03-07T03:55:29;3.90;99.90
24468;DHT22;12634;50.852;5.676;2024-03-07T03:57:58;3.70;99.90
24468;DHT22;12634;50.852;5.676;2024-03-07T04:00:25;3.50;99.90
24468;DHT22;12634;50.852;5.676;2024-03-07T04:02:52;3.70;99.90
24468;DHT22;12634;50.852;5.676;2024-03-07T04:05:21;3.60;99.90
24468;DHT22;12634;50.852;5.676;2024-03-07T04:07:48;3.50;99.90
24468;DHT22;12634;50.852;5.676;2024-03-07T04:10:16;3.80;99.90
24468;DHT22;12634;50.852;5.676;2024-03-07T04:12:44;3.70;99.90
24468;DHT22;12634;50.852;5.676;2024-03-07T04:15:12;3.50;99.90
24468;DHT22;12634;50.852;5.676;2024-03-07T04:17:42;3.50;99.90
24468;DHT22;12634;50.852;5.676;2024-03-07T04:20:10;3.60;99.90
24468;DHT22;12634;50.852;5.676;2024-03-07T04:22:40;3.60;99.90
24468;DHT22;12634;50.852;5.676;2024-03-07T04:25:08;3.30;99.90
24468;DHT22;12634;50.852;5.676;2024-03-07T04:27:35;3.30;99.90
24468;DHT22;12634;50.852;5.676;2024-03-07T04:30:07;3.30;99.90
24468;DHT22;12634;50.852;5.676;2024-03-07T04:32:36;3.30;99.90
24468;DHT22;12634;50.852;5.676;2024-03-07T04:35:05;3.40;99.90
24468;DHT22;12634;50.852;5.676;2024-03-07T04:37:35;3.30;99.90
24468;DHT22;12634;50.852;5.676;2024-03-07T04:40:06;3.40;99.90
24468;DHT22;12634;50.852;5.676;2024-03-07T04:42:41;3.50;99.90
24468;DHT22;12634;50.852;5.676;2024-03-07T04:45:10;3.30;99.90
24468;DHT22;12634;50.852;5.676;2024-03-07T04:47:39;3.20;99.90
24468;DHT22;12634;50.852;5.676;2024-03-07T04:50:07;3.10;99.90
24468;DHT22;12634;50.852;5.676;2024-03-07T04:52:36;3.40;99.90
24468;DHT22;12634;50.852;5.676;2024-03-07T04:55:07;3.50;99.90
24468;DHT22;12634;50.852;5.676;2024-03-07T04:57:36;3.70;99.90
24468;DHT22;12634;50.852;5.676;2024-03-07T05:00:05;3.90;99.90
24468;DHT22;12634;50.852;5.676;2024-03-07T05:02:33;3.60;99.90
24468;DHT22;12634;50.852;5.676;2024-03-07T05:05:00;3.60;99.90
24468;DHT22;12634;50.852;5.676;2024-03-07T05:07:27;3.50;99.90
24468;DHT22;12634;50.852;5.676;2024-03-07T05:09:54;3.50;99.90
24468;DHT22;12634;50.852;5.676;2024-03-07T05:12:23;3.40;99.90
24468;DHT22;12634;50.852;5.676;2024-03-07T05:14:50;3.50;99.90
24468;DHT22;12634;50.852;5.676;2024-03-07T05:17:17;3.50;99.90
24468;DHT22;12634;50.852;5.676;2024-03-07T05:19:45;3.10;99.90
24468;DHT22;12634;50.852;5.676;2024-03-07T05:22:13;3.30;99.90
24468;DHT22;12634;50.852;5.676;2024-03-07T05:24:42;3.20;99.90
24468;DHT22;12634;50.852;5.676;2024-03-07T05:27:09;3.30;99.90
24468;DHT22;12634;50.852;5.676;2024-03-07T05:29:38;3.10;99.90
24468;DHT22;12634;50.852;5.676;2024-03-07T05:32:21;3.20;99.90
24468;DHT22;12634;50.852;5.676;2024-03-07T05:34:49;3.30;99.90
24468;DHT22;12634;50.852;5.676;2024-03-07T05:37:16;3.30;99.90
24468;DHT22;12634;50.852;5.676;2024-03-07T05:39:43;3.20;99.90
24468;DHT22;12634;50.852;5.676;2024-03-07T05:42:11;3.00;99.90
24468;DHT22;12634;50.852;5.676;2024-03-07T05:44:42;3.00;99.90
24468;DHT22;12634;50.852;5.676;2024-03-07T05:47:09;3.10;99.90
24468;DHT22;12634;50.852;5.676;2024-03-07T05:49:39;3.10;99.90
24468;DHT22;12634;50.852;5.676;2024-03-07T05:52:07;3.10;99.90
24468;DHT22;12634;50.852;5.676;2024-03-07T05:54:34;3.20;99.90
24468;DHT22;12634;50.852;5.676;2024-03-07T05:57:01;3.30;99.90
24468;DHT22;12634;50.852;5.676;2024-03-07T05:59:29;3.30;99.90
24468;DHT22;12634;50.852;5.676;2024-03-07T06:01:59;3.20;99.90
24468;DHT22;12634;50.852;5.676;2024-03-07T06:04:26;3.50;99.90
24468;DHT22;12634;50.852;5.676;2024-03-07T06:06:53;3.60;99.90
24468;DHT22;12634;50.852;5.676;2024-03-07T06:09:20;3.80;99.90
24468;DHT22;12634;50.852;5.676;2024-03-07T06:11:48;3.70;99.90
24468;DHT22;12634;50.852;5.676;2024-03-07T06:14:16;3.60;99.90
24468;DHT22;12634;50.852;5.676;2024-03-07T06:16:44;3.80;99.90
24468;DHT22;12634;50.852;5.676;2024-03-07T06:19:12;3.90;99.90
24468;DHT22;12634;50.852;5.676;2024-03-07T06:21:40;3.80;99.90
24468;DHT22;12634;50.852;5.676;2024-03-07T06:24:08;3.60;99.90
24468;DHT22;12634;50.852;5.676;2024-03-07T06:26:37;3.50;99.90
24468;DHT22;12634;50.852;5.676;2024-03-07T06:29:13;3.70;99.90
24468;DHT22;12634;50.852;5.676;2024-03-07T06:31:42;3.80;99.90
24468;DHT22;12634;50.852;5.676;2024-03-07T06:34:09;3.70;99.90
24468;DHT22;12634;50.852;5.676;2024-03-07T06:36:38;4.00;99.90
24468;DHT22;12634;50.852;5.676;2024-03-07T06:39:06;4.00;99.90
24468;DHT22;12634;50.852;5.676;2024-03-07T06:41:35;4.10;99.90
24468;DHT22;12634;50.852;5.676;2024-03-07T06:44:03;4.10;99.90
24468;DHT22;12634;50.852;5.676;2024-03-07T06:46:30;4.30;99.90
24468;DHT22;12634;50.852;5.676;2024-03-07T06:48:57;4.40;99.90
24468;DHT22;12634;50.852;5.676;2024-03-07T06:51:25;4.60;99.90
24468;DHT22;12634;50.852;5.676;2024-03-07T06:53:53;4.80;99.90
24468;DHT22;12634;50.852;5.676;2024-03-07T06:56:22;5.00;99.90
24468;DHT22;12634;50.852;5.676;2024-03-07T06:58:50;5.20;99.90
24468;DHT22;12634;50.852;5.676;2024-03-07T07:01:17;5.20;99.90
24468;DHT22;12634;50.852;5.676;2024-03-07T07:03:45;5.40;99.90
24468;DHT22;12634;50.852;5.676;2024-03-07T07:06:13;5.50;99.90
24468;DHT22;12634;50.852;5.676;2024-03-07T07:08:40;5.90;99.90
24468;DHT22;12634;50.852;5.676;2024-03-07T07:11:09;5.90;99.90
24468;DHT22;12634;50.852;5.676;2024-03-07T07:13:37;6.20;99.90
24468;DHT22;12634;50.852;5.676;2024-03-07T07:16:04;6.40;99.90
24468;DHT22;12634;50.852;5.676;2024-03-07T07:18:32;6.50;99.90
24468;DHT22;12634;50.852;5.676;2024-03-07T07:20:59;6.40;99.90
24468;DHT22;12634;50.852;5.676;2024-03-07T07:23:28;6.60;99.90
24468;DHT22;12634;50.852;5.676;2024-03-07T07:25:55;6.50;99.90
24468;DHT22;12634;50.852;5.676;2024-03-07T07:28:24;7.20;99.90
24468;DHT22;12634;50.852;5.676;2024-03-07T07:30:51;7.10;99.90
24468;DHT22;12634;50.852;5.676;2024-03-07T07:33:18;7.40;99.90
24468;DHT22;12634;50.852;5.676;2024-03-07T07:35:46;7.40;99.90
24468;DHT22;12634;50.852;5.676;2024-03-07T07:38:13;7.30;99.90
24468;DHT22;12634;50.852;5.676;2024-03-07T07:40:40;7.30;99.90
24468;DHT22;12634;50.852;5.676;2024-03-07T07:43:07;7.00;99.90
24468;DHT22;12634;50.852;5.676;2024-03-07T07:45:38;7.00;99.90
24468;DHT22;12634;50.852;5.676;2024-03-07T07:48:06;7.50;99.90
24468;DHT22;12634;50.852;5.676;2024-03-07T07:50:33;7.50;99.90
24468;DHT22;12634;50.852;5.676;2024-03-07T07:53:01;8.10;99.90
24468;DHT22;12634;50.852;5.676;2024-03-07T07:55:33;7.60;99.90
24468;DHT22;12634;50.852;5.676;2024-03-07T07:58:00;7.60;99.90
24468;DHT22;12634;50.852;5.676;2024-03-07T08:00:30;8.00;99.90
24468;DHT22;12634;50.852;5.676;2024-03-07T08:03:00;7.50;99.90
24468;DHT22;12634;50.852;5.676;2024-03-07T08:05:28;7.60;99.90
24468;DHT22;12634;50.852;5.676;2024-03-07T08:07:57;7.70;99.90
24468;DHT22;12634;50.852;5.676;2024-03-07T08:10:25;7.90;99.90
24468;DHT22;12634;50.852;5.676;2024-03-07T08:12:54;8.10;99.90
24468;DHT22;12634;50.852;5.676;2024-03-07T08:15:21;8.40;99.90
24468;DHT22;12634;50.852;5.676;2024-03-07T08:17:49;8.40;99.90
24468;DHT22;12634;50.852;5.676;2024-03-07T08:20:19;8.50;99.90
24468;DHT22;12634;50.852;5.676;2024-03-07T08:22:49;8.50;99.90
24468;DHT22;12634;50.852;5.676;2024-03-07T08:25:19;8.80;99.90
24468;DHT22;12634;50.852;5.676;2024-03-07T08:27:47;9.50;99.90
24468;DHT22;12634;50.852;5.676;2024-03-07T08:30:15;9.30;99.90
24468;DHT22;12634;50.852;5.676;2024-03-07T08:32:44;9.70;99.90
24468;DHT22;12634;50.852;5.676;2024-03-07T08:35:11;10.40;99.90
24468;DHT22;12634;50.852;5.676;2024-03-07T08:37:41;9.50;99.90
24468;DHT22;12634;50.852;5.676;2024-03-07T08:40:10;9.60;99.90
24468;DHT22;12634;50.852;5.676;2024-03-07T08:42:45;9.20;99.90
24468;DHT22;12634;50.852;5.676;2024-03-07T08:45:13;9.00;99.90
24468;DHT22;12634;50.852;5.676;2024-03-07T08:47:43;9.10;99.90
24468;DHT22;12634;50.852;5.676;2024-03-07T08:50:10;9.30;99.90
24468;DHT22;12634;50.852;5.676;2024-03-07T08:52:40;10.00;99.90
24468;DHT22;12634;50.852;5.676;2024-03-07T08:55:09;9.10;99.90
24468;DHT22;12634;50.852;5.676;2024-03-07T08:57:40;9.40;99.90
24468;DHT22;12634;50.852;5.676;2024-03-07T09:00:10;9.20;99.90
24468;DHT22;12634;50.852;5.676;2024-03-07T09:02:41;10.20;99.90
24468;DHT22;12634;50.852;5.676;2024-03-07T09:05:09;9.10;99.90
24468;DHT22;12634;50.852;5.676;2024-03-07T09:07:36;9.10;99.90
24468;DHT22;12634;50.852;5.676;2024-03-07T09:10:06;10.00;99.90
24468;DHT22;12634;50.852;5.676;2024-03-07T09:12:35;9.90;99.90
24468;DHT22;12634;50.852;5.676;2024-03-07T09:15:03;9.30;99.90
24468;DHT22;12634;50.852;5.676;2024-03-07T09:17:30;10.00;99.90
24468;DHT22;12634;50.852;5.676;2024-03-07T09:19:57;9.60;99.90
24468;DHT22;12634;50.852;5.676;2024-03-07T09:22:24;9.60;99.90
24468;DHT22;12634;50.852;5.676;2024-03-07T09:24:52;9.50;99.90
24468;DHT22;12634;50.852;5.676;2024-03-07T09:27:20;9.20;99.90
24468;DHT22;12634;50.852;5.676;2024-03-07T09:29:47;9.30;99.90
24468;DHT22;12634;50.852;5.676;2024-03-07T09:32:15;9.10;99.90
24468;DHT22;12634;50.852;5.676;2024-03-07T09:34:42;9.90;99.90
24468;DHT22;12634;50.852;5.676;2024-03-07T09:37:10;9.70;99.90
24468;DHT22;12634;50.852;5.676;2024-03-07T09:39:37;9.60;99.90
24468;DHT22;12634;50.852;5.676;2024-03-07T09:42:08;9.20;99.90
24468;DHT22;12634;50.852;5.676;2024-03-07T09:44:39;9.30;99.90
24468;DHT22;12634;50.852;5.676;2024-03-07T09:47:07;9.40;99.90
24468;DHT22;12634;50.852;5.676;2024-03-07T09:49:37;9.50;99.90
24468;DHT22;12634;50.852;5.676;2024-03-07T09:52:06;9.10;99.90
24468;DHT22;12634;50.852;5.676;2024-03-07T09:54:37;9.20;99.90
24468;DHT22;12634;50.852;5.676;2024-03-07T09:57:06;9.30;99.90
24468;DHT22;12634;50.852;5.676;2024-03-07T09:59:35;10.00;99.90
24468;DHT22;12634;50.852;5.676;2024-03-07T10:02:06;10.10;99.90
24468;DHT22;12634;50.852;5.676;2024-03-07T10:04:42;9.90;99.90
24468;DHT22;12634;50.852;5.676;2024-03-07T10:07:11;9.90;99.90
24468;DHT22;12634;50.852;5.676;2024-03-07T10:09:39;10.50;99.90
24468;DHT22;12634;50.852;5.676;2024-03-07T10:12:08;9.60;99.90
24468;DHT22;12634;50.852;5.676;2024-03-07T10:14:38;10.00;99.90
24468;DHT22;12634;50.852;5.676;2024-03-07T10:17:06;9.40;99.90
24468;DHT22;12634;50.852;5.676;2024-03-07T10:19:35;9.70;99.90
24468;DHT22;12634;50.852;5.676;2024-03-07T10:22:02;9.20;99.90
24468;DHT22;12634;50.852;5.676;2024-03-07T10:24:32;9.50;99.90
24468;DHT22;12634;50.852;5.676;2024-03-07T10:27:00;9.60;99.90
24468;DHT22;12634;50.852;5.676;2024-03-07T10:29:27;9.60;99.90
24468;DHT22;12634;50.852;5.676;2024-03-07T10:31:55;9.60;99.90
24468;DHT22;12634;50.852;5.676;2024-03-07T10:34:25;9.50;99.90
24468;DHT22;12634;50.852;5.676;2024-03-07T10:36:52;9.90;99.90
24468;DHT22;12634;50.852;5.676;2024-03-07T10:39:20;9.40;99.90
24468;DHT22;12634;50.852;5.676;2024-03-07T10:41:49;10.30;99.90
24468;DHT22;12634;50.852;5.676;2024-03-07T10:44:20;10.20;99.90
24468;DHT22;12634;50.852;5.676;2024-03-07T10:46:53;9.70;99.90
24468;DHT22;12634;50.852;5.676;2024-03-07T10:49:21;10.30;99.90
24468;DHT22;12634;50.852;5.676;2024-03-07T10:52:01;9.40;99.90
24468;DHT22;12634;50.852;5.676;2024-03-07T10:54:34;9.90;99.90
24468;DHT22;12634;50.852;5.676;2024-03-07T10:57:15;10.50;99.90
24468;DHT22;12634;50.852;5.676;2024-03-07T10:59:49;9.70;99.90
24468;DHT22;12634;50.852;5.676;2024-03-07T11:02:27;10.90;99.90
24468;DHT22;12634;50.852;5.676;2024-03-07T11:04:59;10.00;99.90
24468;DHT22;12634;50.852;5.676;2024-03-07T11:07:28;9.10;99.90
24468;DHT22;12634;50.852;5.676;2024-03-07T11:09:56;8.50;99.90
24468;DHT22;12634;50.852;5.676;2024-03-07T11:12:33;8.80;99.90
24468;DHT22;12634;50.852;5.676;2024-03-07T11:15:03;9.80;99.90
24468;DHT22;12634;50.852;5.676;2024-03-07T11:17:33;10.10;99.90
24468;DHT22;12634;50.852;5.676;2024-03-07T11:20:18;9.80;99.90
24468;DHT22;12634;50.852;5.676;2024-03-07T11:22:45;10.60;99.90
24468;DHT22;12634;50.852;5.676;2024-03-07T11:25:13;10.60;99.90
24468;DHT22;12634;50.852;5.676;2024-03-07T11:27:51;10.50;99.90
24468;DHT22;12634;50.852;5.676;2024-03-07T11:30:19;10.40;99.90
24468;DHT22;12634;50.852;5.676;2024-03-07T11:32:48;10.80;99.90
24468;DHT22;12634;50.852;5.676;2024-03-07T11:35:19;11.30;99.90
24468;DHT22;12634;50.852;5.676;2024-03-07T11:37:56;11.10;99.90
24468;DHT22;12634;50.852;5.676;2024-03-07T11:40:42;10.40;99.90
24468;DHT22;12634;50.852;5.676;2024-03-07T11:43:13;10.40;99.90
24468;DHT22;12634;50.852;5.676;2024-03-07T11:45:40;10.80;99.90
24468;DHT22;12634;50.852;5.676;2024-03-07T11:48:12;9.80;99.90
24468;DHT22;12634;50.852;5.676;2024-03-07T11:50:40;10.10;99.90
24468;DHT22;12634;50.852;5.676;2024-03-07T11:53:09;10.50;99.90
24468;DHT22;12634;50.852;5.676;2024-03-07T11:55:37;10.50;99.90
24468;DHT22;12634;50.852;5.676;2024-03-07T11:58:12;11.10;99.90
24468;DHT22;12634;50.852;5.676;2024-03-07T12:00:43;11.50;99.90
24468;DHT22;12634;50.852;5.676;2024-03-07T12:03:13;10.80;99.90
24468;DHT22;12634;50.852;5.676;2024-03-07T12:05:43;11.60;99.90
24468;DHT22;12634;50.852;5.676;2024-03-07T12:08:11;11.40;99.90
24468;DHT22;12634;50.852;5.676;2024-03-07T12:10:37;10.80;99.90
24468;DHT22;12634;50.852;5.676;2024-03-07T12:13:06;9.90;99.90
24468;DHT22;12634;50.852;5.676;2024-03-07T12:15:38;9.40;99.90
24468;DHT22;12634;50.852;5.676;2024-03-07T12:18:07;9.50;99.90
24468;DHT22;12634;50.852;5.676;2024-03-07T12:20:40;9.90;99.90
24468;DHT22;12634;50.852;5.676;2024-03-07T12:23:08;9.20;99.90
24468;DHT22;12634;50.852;5.676;2024-03-07T12:25:35;9.70;99.90
24468;DHT22;12634;50.852;5.676;2024-03-07T12:28:04;10.00;99.90
24468;DHT22;12634;50.852;5.676;2024-03-07T12:30:49;10.70;99.90
24468;DHT22;12634;50.852;5.676;2024-03-07T12:33:17;9.90;99.90
24468;DHT22;12634;50.852;5.676;2024-03-07T12:35:46;9.50;99.90
24468;DHT22;12634;50.852;5.676;2024-03-07T12:38:14;10.20;99.90
24468;DHT22;12634;50.852;5.676;2024-03-07T12:40:43;10.10;99.90
24468;DHT22;12634;50.852;5.676;2024-03-07T12:43:18;10.30;99.90
24468;DHT22;12634;50.852;5.676;2024-03-07T12:45:50;10.60;99.90
24468;DHT22;12634;50.852;5.676;2024-03-07T12:48:18;10.60;99.90
24468;DHT22;12634;50.852;5.676;2024-03-07T12:50:47;9.90;99.90
24468;DHT22;12634;50.852;5.676;2024-03-07T12:53:19;10.80;99.90
24468;DHT22;12634;50.852;5.676;2024-03-07T12:55:47;10.70;99.90
24468;DHT22;12634;50.852;5.676;2024-03-07T12:58:15;9.90;99.90
24468;DHT22;12634;50.852;5.676;2024-03-07T13:00:42;10.40;99.90
24468;DHT22;12634;50.852;5.676;2024-03-07T13:03:11;10.30;99.90
24468;DHT22;12634;50.852;5.676;2024-03-07T13:05:40;10.30;99.90
24468;DHT22;12634;50.852;5.676;2024-03-07T13:08:09;10.60;99.90
24468;DHT22;12634;50.852;5.676;2024-03-07T13:10:38;11.00;99.90
24468;DHT22;12634;50.852;5.676;2024-03-07T13:13:06;10.90;99.90
24468;DHT22;12634;50.852;5.676;2024-03-07T13:15:35;10.50;99.90
24468;DHT22;12634;50.852;5.676;2024-03-07T13:18:04;10.40;99.90
24468;DHT22;12634;50.852;5.676;2024-03-07T13:20:34;10.80;99.90
24468;DHT22;12634;50.852;5.676;2024-03-07T13:23:02;11.00;99.90
24468;DHT22;12634;50.852;5.676;2024-03-07T13:25:29;11.20;99.90
24468;DHT22;12634;50.852;5.676;2024-03-07T13:28:02;10.80;99.90
24468;DHT22;12634;50.852;5.676;2024-03-07T13:30:33;10.80;99.90
24468;DHT22;12634;50.852;5.676;2024-03-07T13:33:02;10.70;99.90
24468;DHT22;12634;50.852;5.676;2024-03-07T13:35:31;11.40;99.90
24468;DHT22;12634;50.852;5.676;2024-03-07T13:38:00;11.20;99.90
24468;DHT22;12634;50.852;5.676;2024-03-07T13:40:28;11.00;99.90
24468;DHT22;12634;50.852;5.676;2024-03-07T13:42:58;11.00;99.90
24468;DHT22;12634;50.852;5.676;2024-03-07T13:45:28;11.00;99.90
24468;DHT22;12634;50.852;5.676;2024-03-07T13:47:57;11.10;99.90
24468;DHT22;12634;50.852;5.676;2024-03-07T13:50:26;11.80;99.90
24468;DHT22;12634;50.852;5.676;2024-03-07T13:52:55;11.90;99.90
24468;DHT22;12634;50.852;5.676;2024-03-07T13:55:55;11.50;99.90
24468;DHT22;12634;50.852;5.676;2024-03-07T13:58:40;11.50;99.90
24468;DHT22;12634;50.852;5.676;2024-03-07T14:01:23;11.30;99.90
24468;DHT22;12634;50.852;5.676;2024-03-07T14:04:23;11.20;99.90
24468;DHT22;12634;50.852;5.676;2024-03-07T14:07:09;11.60;99.90
24468;DHT22;12634;50.852;5.676;2024-03-07T14:09:56;11.40;99.90
24468;DHT22;12634;50.852;5.676;2024-03-07T14:12:55;11.20;99.90
24468;DHT22;12634;50.852;5.676;2024-03-07T14:22:22;11.60;99.90
24468;DHT22;12634;50.852;5.676;2024-03-07T14:25:22;11.30;99.90
24468;DHT22;12634;50.852;5.676;2024-03-07T14:28:12;11.10;99.90
24468;DHT22;12634;50.852;5.676;2024-03-07T14:30:45;11.40;99.90
24468;DHT22;12634;50.852;5.676;2024-03-07T14:33:17;11.20;99.90
24468;DHT22;12634;50.852;5.676;2024-03-07T14:36:09;11.40;99.90
24468;DHT22;12634;50.852;5.676;2024-03-07T14:38:45;11.50;99.90
24468;DHT22;12634;50.852;5.676;2024-03-07T14:41:15;11.60;99.90
24468;DHT22;12634;50.852;5.676;2024-03-07T14:43:45;11.40;99.90
24468;DHT22;12634;50.852;5.676;2024-03-07T14:46:13;11.50;99.90
24468;DHT22;12634;50.852;5.676;2024-03-07T14:48:41;11.30;99.90
24468;DHT22;12634;50.852;5.676;2024-03-07T14:51:10;10.90;99.90
24468;DHT22;12634;50.852;5.676;2024-03-07T14:53:39;11.10;99.90
24468;DHT22;12634;50.852;5.676;2024-03-07T14:56:07;11.00;99.90
24468;DHT22;12634;50.852;5.676;2024-03-07T14:58:36;11.20;99.90
24468;DHT22;12634;50.852;5.676;2024-03-07T15:01:05;11.20;99.90
24468;DHT22;12634;50.852;5.676;2024-03-07T15:03:33;11.20;99.90
24468;DHT22;12634;50.852;5.676;2024-03-07T15:06:00;11.00;99.90
24468;DHT22;12634;50.852;5.676;2024-03-07T15:08:28;11.30;99.90
24468;DHT22;12634;50.852;5.676;2024-03-07T15:10:59;11.30;99.90
24468;DHT22;12634;50.852;5.676;2024-03-07T15:13:32;11.40;99.90
24468;DHT22;12634;50.852;5.676;2024-03-07T15:16:00;11.00;99.90
24468;DHT22;12634;50.852;5.676;2024-03-07T15:18:29;11.10;99.90
24468;DHT22;12634;50.852;5.676;2024-03-07T15:20:56;11.30;99.90
24468;DHT22;12634;50.852;5.676;2024-03-07T15:23:23;11.60;99.90
24468;DHT22;12634;50.852;5.676;2024-03-07T15:25:51;11.70;99.90
24468;DHT22;12634;50.852;5.676;2024-03-07T15:28:18;11.30;99.90
24468;DHT22;12634;50.852;5.676;2024-03-07T15:30:47;11.10;99.90
24468;DHT22;12634;50.852;5.676;2024-03-07T15:33:15;10.90;99.90
24468;DHT22;12634;50.852;5.676;2024-03-07T15:35:46;11.20;99.90
24468;DHT22;12634;50.852;5.676;2024-03-07T15:38:13;11.30;99.90
24468;DHT22;12634;50.852;5.676;2024-03-07T15:40:43;11.20;99.90
24468;DHT22;12634;50.852;5.676;2024-03-07T15:43:10;11.20;99.90
24468;DHT22;12634;50.852;5.676;2024-03-07T15:45:38;11.40;99.90
24468;DHT22;12634;50.852;5.676;2024-03-07T15:48:07;10.90;99.90
24468;DHT22;12634;50.852;5.676;2024-03-07T15:50:36;11.10;99.90
24468;DHT22;12634;50.852;5.676;2024-03-07T15:53:05;11.00;99.90
24468;DHT22;12634;50.852;5.676;2024-03-07T15:55:32;10.90;99.90
24468;DHT22;12634;50.852;5.676;2024-03-07T15:58:01;10.70;99.90
24468;DHT22;12634;50.852;5.676;2024-03-07T16:00:32;10.50;99.90
24468;DHT22;12634;50.852;5.676;2024-03-07T16:03:01;10.40;99.90